EGNJ

Humberside Airport

Grimsby, United Kingdom
METAR EGNJ 220220Z AUTO 36004KT 7000 NCD 09/09 Q1017
Observed Flight Rules
May-22 @ 02:20 UTC (14 minutes ago) Marginal Visual Flight Rules
Wind Visibility Clouds
360° at 4 knots 7,001 meters
  • Clear skies
Temperatures Readings
Current 9°C / 48°F
Dewpoint 9°C / 48°F
Humidity 100%
Altimeter 30.03" Hg
Pressure 1017 hPa
Elevation 31
METAR EGNJ 220220Z AUTO 36004KT 7000 NCD 09/09 Q1017
Observed Flight Rules
May-22 @ 02:20 UTC
(14 minutes ago)
MVFR
Wind Visibility
360° at 4 knots 7,001 meters
Clouds
  • Clear skies
Temperature Dewpoint
9°C / 48°F 9°C / 48°F
Humidity Altimeter Pressure
100% 30.03" Hg 1017 hPa